M I D A S
Marine Information and Data Acquisition System
Tripno 507 of the Zeeleeuw from 2003-05-28 06:13:01 to 2003-05-28 11:02:06
Back to CruiseResearch ActivitiesStationsMapUnderway DataData graphs

EquipmentUnitsComment
TimeDGPSUTC
LatitudeDGPSDM.mWGS84
LongitudeDGPSDM.mWGS84
HeadingGyrodeg 
SOGDGPSknotsSpeed over ground
COGDGPSdegCourse over ground
DepthEcho soundermeters200 kHz
Missing or incorrect values are displayed as -999
Navigation data collected by the RV Zeeleeuw from 2003-05-28 06:13:01 to 2003-05-28 11:02:06
Time Latitude Longitude Heading SOG COG Depth
2003-05-28 06:14:05 51°13.61 2°56.09 125.2   197 6.6
2003-05-28 06:15:07 51°13.61 2°56.09 117.9 0.1 197 5.2
2003-05-28 06:16:07 51°13.61 2°56.07 114.9 2.5 293 -999
2003-05-28 06:17:11 51°13.63 2°55.97 113.9 4.5 288 -999
2003-05-28 06:18:11 51°13.67 2°55.85 122.8 4.8 298 -999
2003-05-28 06:19:07 51°13.68 2°55.82 103.7 0.7 298 8.8
2003-05-28 06:20:09 51°13.68 2°55.76 81 2.4 263 -999
2003-05-28 06:21:07 51°13.69 2°55.76 42.2 0.5 22 11
2003-05-28 06:22:09 51°13.68 2°55.74 21 0.6 6 -999
2003-05-28 06:23:09 51°13.72 2°55.72 339.6 4.8 335 9.9
2003-05-28 06:24:07 51°13.81 2°55.65 339.7 7.1 336 9.7
2003-05-28 06:25:05 51°13.92 2°55.57 339.5 8 334 10.2
2003-05-28 06:26:05 51°14.05 2°55.48 337.3 8 333 9.9
2003-05-28 06:27:09 51°14.17 2°55.37 334.3 8.1 330 10.3
2003-05-28 06:28:15 51°14.28 2°55.22 315.8 7.9 311 10
2003-05-28 06:29:15 51°14.36 2°55.05 308.3 8.1 303 9.4
2003-05-28 06:30:15 51°14.4 2°54.79 279.8 11.6 274 9.2
2003-05-28 06:31:15 51°14.41 2°54.46 269.8 12.5 262 8.8
2003-05-28 06:32:13 51°14.34 2°54.16 246.4 13 243 8.1
2003-05-28 06:33:49 51°14.17 2°53.64 245.1 14.3 241 8.1
2003-05-28 06:34:59 51°14.04 2°53.24 245.4 14.6 241 8.6
2003-05-28 06:36:01 51°13.91 2°52.89 245.5 14.8 241 9
2003-05-28 06:37:05 51°13.78 2°52.53 245 14.8 241 9.2
2003-05-28 06:38:05 51°13.65 2°52.19 244 14.9 240 9.4
2003-05-28 06:39:05 51°13.53 2°51.84 244.4 14.9 240 9.4
2003-05-28 06:40:05 51°13.41 2°51.5 244.8 14.9 241 9.6
2003-05-28 06:41:05 51°13.28 2°51.16 244.7 14.9 241 9.7
2003-05-28 06:42:05 51°13.16 2°50.81 244.6 15 241 9.9
2003-05-28 06:43:09 51°13.03 2°50.44 244.2 15.1 240 10
2003-05-28 06:44:29 51°12.86 2°49.98 244 15 241 10.2
2003-05-28 06:45:29 51°12.74 2°49.63 244.6 15 241 10.3
2003-05-28 06:46:29 51°12.62 2°49.28 243.8 14.9 240 10.4
2003-05-28 06:47:29 51°12.5 2°48.94 244.2 15 241 10.5
2003-05-28 06:48:33 51°12.37 2°48.57 244.1 15 240 10.6
2003-05-28 06:49:35 51°12.24 2°48.21 244.4 15 241 10.7
2003-05-28 06:50:35 51°12.12 2°47.86 243.9 14.9 240 10.7
2003-05-28 06:51:53 51°11.97 2°47.4 248.8 15 245 10.8
2003-05-28 06:53:09 51°11.84 2°46.95 248.2 15 245 10.8
2003-05-28 06:54:09 51°11.73 2°46.59 252.6 15 249 11.1
2003-05-28 06:55:09 51°11.64 2°46.22 252.5 15 249 11.2
2003-05-28 06:56:15 51°11.54 2°45.81 252.7 15.1 249 11.1
2003-05-28 06:57:15 51°11.45 2°45.44 252.5 15.1 248 11.1
2003-05-28 06:58:15 51°11.37 2°45.06 257 15.1 252 11.1
2003-05-28 06:59:19 51°11.29 2°44.66 256.3 15 252 11.3
2003-05-28 07:00:25 51°11.21 2°44.24 258.3 15.1 254 11.4
2003-05-28 07:01:35 51°11.13 2°43.8 258.3 14.9 254 11.5
2003-05-28 07:02:41 51°11.05 2°43.38 258.4 14.9 254 11.5
2003-05-28 07:03:49 51°10.97 2°42.95 258.3 14.9 254 11.6
2003-05-28 07:04:55 51°10.9 2°42.53 258.2 14.9 254 11.6
2003-05-28 07:06:01 51°10.83 2°42.11 260.8 14.8 256 11.7
2003-05-28 07:07:21 51°10.75 2°41.61 260.4 14.7 256 11.8
2003-05-28 07:08:25 51°10.68 2°41.2 260.3 14.7 256 11.8
2003-05-28 07:09:35 51°10.61 2°40.77 260.7 14.7 256 12
2003-05-28 07:10:33 51°10.56 2°40.4 260.2 14.7 256 12.6
2003-05-28 07:11:49 51°10.48 2°39.92 260 14.8 256 13.4
2003-05-28 07:13:01 51°10.41 2°39.47 260.5 14.7 256 14
2003-05-28 07:14:05 51°10.34 2°39.06 260.5 14.7 256 14.9
2003-05-28 07:15:21 51°10.27 2°38.59 260.4 14.7 256 15.5
2003-05-28 07:16:25 51°10.2 2°38.18 259.9 14.8 255 15.8
2003-05-28 07:17:35 51°10.13 2°37.74 260.5 14.8 256 16.7
2003-05-28 07:18:41 51°10.07 2°37.32 259.8 14.8 256 17.1
2003-05-28 07:19:55 51°9.99 2°36.86 260.1 14.8 256 17.3
2003-05-28 07:21:11 51°9.92 2°36.38 266.5 14.6 263 17.2
2003-05-28 07:22:15 51°9.98 2°35.99 307.2 14 302 17.4
2003-05-28 07:23:21 51°10.17 2°35.76 347.6 13.2 343 10.6
2003-05-28 07:24:21 51°10.39 2°35.75 15.9 13.1 11 10.7
2003-05-28 07:25:25 51°10.61 2°35.86 25.5 13.1 20 10.3
2003-05-28 07:26:37 51°10.84 2°36.05 38.5 13.1 34 10.7
2003-05-28 07:27:45 51°11.05 2°36.27 37.7 13.1 34 11
2003-05-28 07:28:45 51°11.23 2°36.46 37.9 13.2 34 11.3
2003-05-28 07:29:57 51°11.45 2°36.69 37.9 13.1 33 11.3
2003-05-28 07:31:05 51°11.66 2°36.9 37.6 13.2 33 11.4
2003-05-28 07:32:15 51°11.87 2°37.12 37.4 13.2 33 11.6
2003-05-28 07:33:15 51°12.06 2°37.31 37.6 13.1 33 11.3
2003-05-28 07:34:37 51°12.31 2°37.57 37.2 13.1 33 11.7
2003-05-28 07:35:41 51°12.51 2°37.77 37.5 13.2 33 12.2
2003-05-28 07:36:41 51°12.69 2°37.96 37.2 13.2 33 12.7
2003-05-28 07:37:55 51°12.92 2°38.2 37 13.2 33 13.4
2003-05-28 07:39:01 51°13.13 2°38.38 31.9 13.2 27 13.8
2003-05-28 07:40:05 51°13.34 2°38.54 27.5 13.2 23 14.2
2003-05-28 07:41:15 51°13.58 2°38.7 27.8 13.3 23 14.4
2003-05-28 07:42:19 51°13.8 2°38.82 18.8 13.2 14 13.6
2003-05-28 07:43:29 51°14.04 2°38.78 332.4 13 322 11
2003-05-28 07:44:37 51°14.11 2°38.4 271.3 14.3 264 16.6
2003-05-28 07:45:37 51°14.02 2°38.04 243.2 14.7 238 17.6
2003-05-28 07:46:37 51°13.9 2°37.7 246.8 14.8 242 17.5
2003-05-28 07:47:57 51°13.74 2°37.24 244.6 14.8 240 18.4
2003-05-28 07:49:15 51°13.59 2°36.8 245.1 14.7 241 18.2
2003-05-28 07:50:29 51°13.45 2°36.37 249.6 14.7 246 16.3
2003-05-28 07:51:31 51°13.35 2°36 253 14.6 248 16.8
2003-05-28 07:52:47 51°13.23 2°35.55 252.5 14.6 248 17
2003-05-28 07:53:49 51°13.14 2°35.18 252.3 14.7 248 17.2
2003-05-28 07:55:01 51°13.02 2°34.75 252.5 14.7 247 17.4
2003-05-28 07:56:11 51°12.91 2°34.33 252.4 14.4 247 17.6
2003-05-28 07:57:17 51°12.81 2°33.95 252.5 14.4 247 16.9
2003-05-28 07:58:17 51°12.71 2°33.6 251.9 14.3 246 15.7
2003-05-28 07:59:25 51°12.6 2°33.21 252.1 14.2 246 15.2
2003-05-28 08:00:29 51°12.5 2°32.84 252.4 14.4 246 16
2003-05-28 08:01:29 51°12.4 2°32.49 252.5 14.5 246 17.3
2003-05-28 08:02:29 51°12.31 2°32.14 252.1 14.5 246 18.8
2003-05-28 08:03:29 51°12.21 2°31.79 254.7 14.5 249 20.9
2003-05-28 08:04:33 51°12.12 2°31.41 255.4 14.5 249 21.6
2003-05-28 08:05:33 51°12.03 2°31.05 254.4 14.5 248 23.1
2003-05-28 08:06:35 51°11.94 2°30.68 255.7 14.3 250 22.8
2003-05-28 08:07:33 51°11.86 2°30.34 255.4 14.3 249 23.2
2003-05-28 08:08:33 51°11.78 2°29.99 255.3 14.3 249 23.3
2003-05-28 08:09:35 51°11.69 2°29.62 255.3 14.2 249 23.4
2003-05-28 08:10:33 51°11.61 2°29.28 255.4 14.3 249 25.1
2003-05-28 08:11:35 51°11.52 2°28.92 255.1 14.1 249 24.3
2003-05-28 08:12:33 51°11.44 2°28.58 255.3 14 249 22.5
2003-05-28 08:13:45 51°11.35 2°28.17 255.5 13.9 250 22.8
2003-05-28 08:14:45 51°11.31 2°27.81 273.1 13.4 268 23.6
2003-05-28 08:15:45 51°11.3 2°27.46 272.2 13.3 267 23.1
2003-05-28 08:16:45 51°11.29 2°27.11 272.2 13.3 267 21.8
2003-05-28 08:17:45 51°11.28 2°26.76 272 13.4 267 19.2
2003-05-28 08:18:45 51°11.26 2°26.41 271.3 13.4 265 16.8
2003-05-28 08:19:45 51°11.25 2°26.05 272.7 13.3 268 14.1
2003-05-28 08:20:45 51°11.28 2°25.71 286 13.2 281 16.5
2003-05-28 08:21:45 51°11.4 2°25.42 322.1 13.5 318 21.9
2003-05-28 08:22:45 51°11.6 2°25.3 4 13.5 1 26.7
2003-05-28 08:23:45 51°11.82 2°25.4 25.9 13.7 23 25.2
2003-05-28 08:24:45 51°12.03 2°25.55 31.5 13.8 29 26.3
2003-05-28 08:25:45 51°12.22 2°25.77 44.2 13.9 41 26.3
2003-05-28 08:26:45 51°12.39 2°26.01 44.2 13.9 41 26.8
2003-05-28 08:27:45 51°12.56 2°26.25 44.6 13.9 41 26.4
2003-05-28 08:28:45 51°12.74 2°26.49 44.2 13.9 41 25.9
2003-05-28 08:29:45 51°12.91 2°26.74 45.6 13.9 42 25.9
2003-05-28 08:30:45 51°13.08 2°26.99 45.1 13.9 42 26.2
2003-05-28 08:31:45 51°13.25 2°27.23 45.6 13.8 43 25.9
2003-05-28 08:32:45 51°13.42 2°27.48 45.1 13.9 42 26
2003-05-28 08:33:45 51°13.59 2°27.72 45 13.9 42 26.4
2003-05-28 08:34:45 51°13.77 2°27.97 45.3 13.9 43 26.7
2003-05-28 08:35:45 51°13.94 2°28.22 45.1 13.9 42 27.3
2003-05-28 08:36:45 51°14.11 2°28.47 44.9 14 42 26.8
2003-05-28 08:37:45 51°14.28 2°28.72 45.2 14 42 27.9
2003-05-28 08:38:45 51°14.46 2°28.96 44.9 14.1 42 28.4
2003-05-28 08:39:45 51°14.63 2°29.23 48.5 14.2 45 28.2
2003-05-28 08:40:45 51°14.79 2°29.5 48.7 14.3 46 28
2003-05-28 08:41:45 51°14.96 2°29.77 48.4 14.3 45 28.4
2003-05-28 08:42:45 51°15.13 2°30.04 48.3 14.4 45 28.3
2003-05-28 08:43:45 51°15.3 2°30.31 48.4 14.4 45 28.4
2003-05-28 08:44:45 51°15.47 2°30.58 48.4 14.5 45 28.5
2003-05-28 08:45:45 51°15.64 2°30.85 48.5 14.5 46 28.5
2003-05-28 08:46:45 51°15.81 2°31.13 48.5 14.5 45 28.3
2003-05-28 08:47:45 51°15.98 2°31.4 48.4 14.4 46 28.2
2003-05-28 08:48:45 51°16.15 2°31.67 47.9 14.4 46 27.8
2003-05-28 08:49:45 51°16.31 2°31.95 48.1 14.4 46 28.3
2003-05-28 08:50:45 51°16.48 2°32.22 48.1 14.4 46 28.1
2003-05-28 08:51:45 51°16.65 2°32.49 48.7 14.3 46 26.2
2003-05-28 08:52:45 51°16.81 2°32.77 47.9 14.3 45 24.9
2003-05-28 08:53:45 51°16.98 2°33.04 48.3 14.4 46 26.1
2003-05-28 08:54:45 51°17.14 2°33.31 48.6 14.4 46 25.2
2003-05-28 08:55:45 51°17.31 2°33.58 48.2 14.4 46 26.2
2003-05-28 08:56:45 51°17.48 2°33.86 48.2 14.4 45 25.5
2003-05-28 08:57:45 51°17.65 2°34.13 48.6 14.4 46 26.8
2003-05-28 08:58:45 51°17.82 2°34.4 48.4 14.5 45 24.5
2003-05-28 08:59:45 51°17.99 2°34.67 48.2 14.6 45 28.1
2003-05-28 09:00:45 51°18.16 2°34.95 48.4 14.6 46 27.5
2003-05-28 09:01:45 51°18.33 2°35.23 47.8 14.6 45 27.4
2003-05-28 09:02:45 51°18.48 2°35.53 62.2 14.6 60 26.1
2003-05-28 09:03:45 51°18.6 2°35.87 63.5 14.6 61 24.6
2003-05-28 09:04:45 51°18.72 2°36.2 63.1 14.7 60 18.2
2003-05-28 09:05:45 51°18.84 2°36.54 62.9 14.7 61 19.8
2003-05-28 09:06:45 51°18.96 2°36.88 62.3 14.8 60 22.4
2003-05-28 09:07:45 51°19.08 2°37.22 62.4 14.7 60 21.2
2003-05-28 09:08:45 51°19.21 2°37.56 62 14.6 59 21.7
2003-05-28 09:09:45 51°19.33 2°37.9 62.3 14.6 60 23.5
2003-05-28 09:10:45 51°19.45 2°38.23 61.7 14.6 60 24
2003-05-28 09:11:45 51°19.57 2°38.56 62.6 14.5 60 26
2003-05-28 09:12:45 51°19.69 2°38.89 62.5 14.5 59 27.5
2003-05-28 09:13:45 51°19.81 2°39.24 72.3 14.6 69 28.7
2003-05-28 09:14:45 51°19.89 2°39.6 72.7 14.5 69 30.2
2003-05-28 09:15:45 51°19.98 2°39.96 72.7 14.5 68 29.8
2003-05-28 09:16:45 51°20.03 2°40.33 83.4 14.5 79 30
2003-05-28 09:17:45 51°20.08 2°40.71 90.6 14.6 88 26.5
2003-05-28 09:18:45 51°20.05 2°41.1 101.2 14.8 97 23.4
2003-05-28 09:19:45 51°20.02 2°41.49 100.5 14.8 96 18.6
2003-05-28 09:20:45 51°20 2°41.89 100.2 15 95 21.9
2003-05-28 09:21:45 51°19.98 2°42.28 99.4 14.9 94 25
2003-05-28 09:22:45 51°19.96 2°42.68 99.4 14.7 95 26.7
2003-05-28 09:23:45 51°19.94 2°43.07 99.3 14.7 95 27.6
2003-05-28 09:24:45 51°19.92 2°43.46 99.5 14.4 95 28.1
2003-05-28 09:25:45 51°19.9 2°43.84 99.4 14.4 95 26.8
2003-05-28 09:26:45 51°19.88 2°44.22 99.4 14.4 94 26.1
2003-05-28 09:27:46 51°19.86 2°44.61 99.6 14.5 94 25.2
2003-05-28 09:28:46 51°19.85 2°44.99 99.4 14.6 94 23.8
2003-05-28 09:29:45 51°19.83 2°45.38 99.5 14.7 94 18.7
2003-05-28 09:30:45 51°19.76 2°45.74 124.5 14.7 119 15.3
2003-05-28 09:31:45 51°19.64 2°46.08 125.6 14.9 119 17.8
2003-05-28 09:32:45 51°19.52 2°46.42 125.4 14.7 119 20.7
2003-05-28 09:33:45 51°19.4 2°46.76 126 14.3 120 23
2003-05-28 09:34:45 51°19.29 2°47.09 124.1 14.4 118 23.1
2003-05-28 09:35:45 51°19.17 2°47.43 124.3 14.5 117 22.4
2003-05-28 09:36:45 51°19.06 2°47.77 124.3 14.4 118 20.4
2003-05-28 09:37:45 51°18.95 2°48.11 123.7 14.5 117 18.5
2003-05-28 09:38:45 51°18.84 2°48.45 124.2 14.4 118 15.2
2003-05-28 09:39:45 51°18.72 2°48.79 125.2 14.5 118 13.3
2003-05-28 09:40:45 51°18.61 2°49.13 124.4 14.8 117 12.7
2003-05-28 09:41:45 51°18.49 2°49.47 124.6 14.7 118 13
2003-05-28 09:42:45 51°18.38 2°49.82 124 14.7 117 15.4
2003-05-28 09:43:45 51°18.27 2°50.16 124.4 14.5 118 16.1
2003-05-28 09:44:46 51°18.16 2°50.51 124.9 14.4 119 15.3
2003-05-28 09:45:46 51°18.03 2°50.84 127.6 14.4 121 14.5
2003-05-28 09:46:46 51°17.91 2°51.17 128.3 14.5 121 13
2003-05-28 09:47:46 51°17.77 2°51.48 131.7 14.5 125 12.1
2003-05-28 09:48:46 51°17.64 2°51.8 131.8 14.3 125 12.3
2003-05-28 09:49:46 51°17.5 2°52.12 131.5 14.5 125 12.4
2003-05-28 09:50:45 51°17.37 2°52.43 132.8 14.3 127 12.5
2003-05-28 09:51:45 51°17.22 2°52.71 140 14.3 132 11.7
2003-05-28 09:52:46 51°17.07 2°53.02 129.5 14.4 122 11
2003-05-28 09:53:46 51°16.94 2°53.35 129.1 14.6 122 10.4
2003-05-28 09:54:46 51°16.81 2°53.68 127.9 14.9 120 13.4
2003-05-28 09:55:46 51°16.69 2°54.02 129.1 14.9 121 14
2003-05-28 09:56:46 51°16.56 2°54.36 129.2 14.8 120 13.9
2003-05-28 09:57:45 51°16.45 2°54.68 125.7 13.2 117 13.1
2003-05-28 09:58:45 51°16.37 2°54.95 125.2 9.2 112 12.9
2003-05-28 09:59:45 51°16.36 2°55.13 85.2 5.6 76 13
2003-05-28 10:00:45 51°16.4 2°55.25 52.2 4.5 54 12.9
2003-05-28 10:01:46 51°16.45 2°55.33 13 3.2 36 13
2003-05-28 10:02:48 51°16.46 2°55.37 12.7 1.5 127 -999
2003-05-28 10:03:46 51°16.48 2°55.4 356.6 2.4 34 12.9
2003-05-28 10:04:46 51°16.51 2°55.43 339.9 1.9 31 12.9
2003-05-28 10:05:46 51°16.54 2°55.46 327.4 1.7 32 12.9
2003-05-28 10:06:46 51°16.56 2°55.48 320.3 1.6 35 12.9
2003-05-28 10:07:46 51°16.58 2°55.51 322 1.5 38 12.9
2003-05-28 10:08:46 51°16.6 2°55.53 326.5 1.6 43 13
2003-05-28 10:09:45 51°16.62 2°55.56 330.4 1.6 45 13
2003-05-28 10:10:46 51°16.64 2°55.59 333.4 1.5 48 13
2003-05-28 10:11:46 51°16.66 2°55.62 336.1 1.6 49 12.9
2003-05-28 10:12:46 51°16.67 2°55.65 337.4 1.5 50 12.9
2003-05-28 10:13:46 51°16.69 2°55.69 336.6 1.5 52 12.9
2003-05-28 10:14:45 51°16.7 2°55.72 334.3 1.4 54 12.9
2003-05-28 10:15:46 51°16.72 2°55.75 330.7 1.4 55 12.9
2003-05-28 10:16:46 51°16.73 2°55.78 328.5 1.5 55 12.9
2003-05-28 10:17:46 51°16.75 2°55.81 326.6 1.5 54 12.9
2003-05-28 10:18:46 51°16.76 2°55.84 325.1 1.5 55 12.9
2003-05-28 10:19:45 51°16.78 2°55.87 323.7 1.4 54 12.9
2003-05-28 10:20:45 51°16.79 2°55.91 322.9 1.4 55 12.8
2003-05-28 10:21:46 51°16.8 2°55.94 322.1 1.5 55 12.9
2003-05-28 10:22:46 51°16.82 2°55.97 321.7 1.4 54 12.8
2003-05-28 10:23:46 51°16.83 2°56 321.4 1.5 54 12.8
2003-05-28 10:24:46 51°16.85 2°56.03 320.3 1.3 54 12.8
2003-05-28 10:25:46 51°16.86 2°56.06 318.9 1.4 54 12.9
2003-05-28 10:26:46 51°16.88 2°56.09 317.8 1.4 54 12.8
2003-05-28 10:27:46 51°16.89 2°56.12 317.1 1.4 53 12.8
2003-05-28 10:28:48 51°16.9 2°56.16 318 1.5 53 12.8
2003-05-28 10:29:46 51°16.92 2°56.18 319.8 1.4 52 12.8
2003-05-28 10:30:47 51°16.93 2°56.21 322.3 1.4 51 12.7
2003-05-28 10:31:45 51°16.95 2°56.24 323.5 1.5 54 12.7
2003-05-28 10:32:45 51°16.96 2°56.27 324 1.5 53 12.7
2003-05-28 10:33:45 51°16.98 2°56.31 323.6 1.5 54 12.7
2003-05-28 10:34:46 51°16.99 2°56.34 321 1.4 47 12.6
2003-05-28 10:35:45 51°17.01 2°56.35 291.9 1.6 336 12.7
2003-05-28 10:36:45 51°17.02 2°56.32 238.8 1.7 230 12.7
2003-05-28 10:37:45 51°16.98 2°56.29 210 3 188 12.7
2003-05-28 10:38:45 51°16.93 2°56.26 236.7 2.9 230 12.7
2003-05-28 10:39:46 51°16.89 2°56.19 218.9 5.8 207 12.8
2003-05-28 10:40:45 51°16.76 2°56.07 217.3 10.6 209 12.6
2003-05-28 10:41:45 51°16.6 2°55.91 219.9 11.8 214 12.5
2003-05-28 10:42:45 51°16.44 2°55.73 220.4 12 215 12.5
2003-05-28 10:43:45 51°16.27 2°55.55 220.6 12 214 12.6
2003-05-28 10:44:45 51°16.11 2°55.37 219.7 12.3 214 12.4
2003-05-28 10:45:45 51°15.94 2°55.18 219.3 12.3 214 12.2
2003-05-28 10:46:45 51°15.77 2°55 219.1 12.3 214 11.8
2003-05-28 10:47:45 51°15.6 2°54.82 219.6 12.2 214 11.8
2003-05-28 10:48:45 51°15.43 2°54.64 218.8 12.3 214 11.4
2003-05-28 10:49:45 51°15.23 2°54.56 186.3 12.5 177 11.1
2003-05-28 10:50:46 51°15.02 2°54.59 179 12.9 170 10.8
2003-05-28 10:51:46 51°14.81 2°54.68 164.8 13 153 11.5
2003-05-28 10:52:47 51°14.63 2°54.82 169.8 11.9 160 11.8
2003-05-28 10:53:45 51°14.45 2°54.95 156.4 12.1 145 12.4
2003-05-28 10:54:45 51°14.3 2°55.16 132.8 10.4 129 13.3
2003-05-28 10:55:45 51°14.22 2°55.32 143.3 6.1 139 13.7
2003-05-28 10:56:45 51°14.15 2°55.4 153.1 5 149 13.6
2003-05-28 10:57:46 51°14.08 2°55.46 158.9 4.6 155 13.5
2003-05-28 10:58:46 51°14.01 2°55.51 161.3 4.8 157 13.7
2003-05-28 10:59:46 51°13.93 2°55.56 160.1 5 156 13.7
2003-05-28 11:00:46 51°13.86 2°55.61 160.2 5.2 157 12.4
2003-05-28 11:01:46 51°13.78 2°55.68 148.6 5.1 145 13.4